»·PEaware :: SKW5737 KSBP-KLAX

SKW5737 :: KSBP-KLAX

FLIGHT INFORMATION

Flight Status: Arrived
Operator:
SkyWest Airlines
More flights by this operator :: More flights under this callsign
Pilot: Alec D. (17934)
Aircraft: EMBRAER EMB-170/175
(E170)
More flights by this aircraft type
Origin: KSBP San Luis Co Regl
United States
Destination: KLAX Los Angeles Intl
United States
More flights between these airports :: More routes between these airports
Route: +RZS VTU SADDE8
File this flight plan on PilotEdge
Remarks:
Altitude:
(Current/Filed)
13,000ft
Speed:
(Current/Filed)
380kts
Departed: 25-Aug-18 08:39 AM
Arrived: 25-Aug-18 09:19 AM
Distance/Time
Traveled:
135nm/0:40
Distance/Time
To Go:
Arrived

Flight Plot

Page will automatically refresh every two minutes.

Flight plan parsing failed; only flown route is shown


Map Options




Map Legend


Flown Route
Filed Route
Departure Airport
Arrival Airport
Navaid (VOR, NDB)
Fix

Horizontal Profiles

Position Reports

Time Latitude Longitude Heading Altitude Ground
Speed
25-Aug-18 08:17 35.239015 -120.641417 349 223ft 0kts
25-Aug-18 08:18 35.239015 -120.641417 349 223ft 0kts
25-Aug-18 08:19 35.239015 -120.641417 349 223ft 0kts
25-Aug-18 08:20 35.239015 -120.641417 349 223ft 0kts
25-Aug-18 08:21 35.239015 -120.641417 349 223ft 0kts
25-Aug-18 08:22 35.239015 -120.641417 349 223ft 0kts
25-Aug-18 08:23 35.239015 -120.641417 349 223ft 0kts
25-Aug-18 08:24 35.239015 -120.641417 349 223ft 0kts
25-Aug-18 08:25 35.239015 -120.641417 349 223ft 0kts
25-Aug-18 08:26 35.239015 -120.641417 349 223ft 0kts
25-Aug-18 08:27 35.239015 -120.641417 349 223ft 0kts
25-Aug-18 08:28 35.239015 -120.641417 349 223ft 0kts
25-Aug-18 08:29 35.239015 -120.641417 349 223ft 0kts
25-Aug-18 08:30 35.239015 -120.641417 349 223ft 0kts
25-Aug-18 08:31 35.239015 -120.641417 349 223ft 0kts
25-Aug-18 08:32 35.239015 -120.641417 349 223ft 0kts
25-Aug-18 08:33 35.239015 -120.641417 349 223ft 0kts
25-Aug-18 08:34 35.238864 -120.641394 1 223ft 2kts
25-Aug-18 08:35 35.238604 -120.641506 36 223ft 0kts
25-Aug-18 08:36 35.238607 -120.641504 36 223ft 0kts
25-Aug-18 08:37 35.238316 -120.640874 126 223ft 14kts
25-Aug-18 08:38 35.235612 -120.635991 123 223ft 14kts
25-Aug-18 08:39 35.233947 -120.632935 124 223ft 13kts
25-Aug-18 08:40 35.233704 -120.634625 303 223ft 48kts
25-Aug-18 08:41 35.255411 -120.673144 303 1199ft 189kts
25-Aug-18 08:42 35.282906 -120.723069 304 3464ft 240kts
25-Aug-18 08:43 35.292058 -120.812569 219 7409ft 276kts
25-Aug-18 08:44 35.232625 -120.804373 140 7943ft 283kts
25-Aug-18 08:45 35.173044 -120.718797 130 7995ft 283kts
25-Aug-18 08:46 35.130440 -120.657411 130 7995ft 283kts
25-Aug-18 08:47 35.079658 -120.584050 130 7996ft 283kts
25-Aug-18 08:48 35.027656 -120.509149 131 10343ft 300kts
25-Aug-18 08:49 34.971950 -120.429123 131 10929ft 316kts
25-Aug-18 08:50 34.912996 -120.344607 131 11006ft 347kts
25-Aug-18 08:51 34.846962 -120.250254 131 10999ft 373kts
25-Aug-18 08:52 34.779926 -120.154670 130 10999ft 370kts
25-Aug-18 08:53 34.713050 -120.059577 130 11003ft 370kts
25-Aug-18 08:54 34.645847 -119.964262 130 11000ft 369kts
25-Aug-18 08:55 34.578984 -119.869694 130 10990ft 369kts
25-Aug-18 08:56 34.512216 -119.775219 128 10973ft 369kts
25-Aug-18 08:57 34.455304 -119.671221 123 10974ft 369kts
25-Aug-18 08:58 34.398809 -119.567460 123 10974ft 369kts
25-Aug-18 08:59 34.342052 -119.463435 123 10977ft 369kts
25-Aug-18 09:00 34.285488 -119.359911 123 10974ft 369kts
25-Aug-18 09:01 34.228909 -119.256673 123 10987ft 369kts
25-Aug-18 09:02 34.172099 -119.153303 123 10983ft 368kts
25-Aug-18 09:03 34.115764 -119.050366 120 10972ft 367kts
25-Aug-18 09:04 34.085751 -118.938587 108 10972ft 333kts
25-Aug-18 09:05 34.058452 -118.837070 108 10975ft 308kts
25-Aug-18 09:06 34.036912 -118.738559 95 10998ft 303kts
25-Aug-18 09:07 34.027116 -118.636601 97 9776ft 307kts
25-Aug-18 09:08 34.017879 -118.537639 97 8289ft 289kts
25-Aug-18 09:09 34.017262 -118.443444 82 7147ft 270kts
25-Aug-18 09:10 34.027734 -118.354753 81 6993ft 265kts
25-Aug-18 09:11 34.038425 -118.267056 81 6972ft 265kts
25-Aug-18 09:12 34.049258 -118.177732 81 5453ft 267kts
25-Aug-18 09:13 34.029559 -118.105459 166 4187ft 235kts
25-Aug-18 09:14 33.984867 -118.143123 231 3594ft 189kts
25-Aug-18 09:15 33.956123 -118.192506 253 3376ft 174kts
25-Aug-18 09:16 33.951223 -118.249329 264 2377ft 164kts
25-Aug-18 09:17 33.945915 -118.301374 262 1464ft 149kts
25-Aug-18 09:18 33.940906 -118.350202 262 684ft 147kts
25-Aug-18 09:19 33.936310 -118.395244 263 137ft 92kts
25-Aug-18 09:20 33.936427 -118.403409 296 137ft 2kts
25-Aug-18 09:21 33.939042 -118.405376 351 137ft 17kts
25-Aug-18 09:22 33.940944 -118.405109 85 137ft 0kts
25-Aug-18 09:23 33.940944 -118.405109 85 137ft 0kts

Navigation Log

Ident Type
Flight plan parsing failed, navigation log unavailable